Frederick, Colorado
Current Conditions -  °F | °C
As of 4:35 AM on Thursday 27 Nov 2014 (Local Time) from KEIK Reporting Station
Clear Clear  
Wind Chill: 25°   Ceiling: Unl
Heat Index: 25°   Visibility: 10mi
Dew Point: 23°   Wind: 3mph
Humidity: 91%   Direction: 170°S
Pressure: 30.2"   Gusts: NA
Location:  40.1°N, 104.94°W
Report Text: KEIK 271135Z AUTO 17003KT 10SM CLR M04/M05 A3020 RMK AO2 T10371050
Loading
Personal Weather Stations






























Interactive Weather Map New forecast layout! Learn more

10-Day Weather Forecast

Advertisements
Track Severe Weather on mobile